createdAt,value
2019-02-07T00:02:16.793Z,1.20
2019-02-07T00:04:44.164Z,1.20
2019-02-07T00:07:11.827Z,1.10
2019-02-07T00:09:39.234Z,1.20
2019-02-07T00:12:06.578Z,1.20
2019-02-07T00:14:39.726Z,1.10
2019-02-07T00:17:03.334Z,1.20
2019-02-07T00:19:30.771Z,1.30
2019-02-07T00:21:58.159Z,1.40
2019-02-07T00:24:25.914Z,1.40
2019-02-07T00:26:53.355Z,1.40
2019-02-07T00:29:20.719Z,1.40
2019-02-07T00:31:47.968Z,1.30
2019-02-07T00:34:15.343Z,1.30
2019-02-07T00:36:43.108Z,1.30
2019-02-07T00:39:10.488Z,1.40
2019-02-07T00:41:38.008Z,1.40
2019-02-07T00:44:05.488Z,1.40
2019-02-07T00:46:32.832Z,1.40
2019-02-07T00:49:00.188Z,1.40
2019-02-07T00:51:27.547Z,1.40
2019-02-07T00:53:55.004Z,1.30
2019-02-07T00:56:22.361Z,1.30
2019-02-07T00:58:49.936Z,1.30
2019-02-07T01:01:17.415Z,1.30
2019-02-07T01:03:44.906Z,1.40
2019-02-07T01:06:12.244Z,1.30
2019-02-07T01:08:39.638Z,1.30
2019-02-07T01:11:06.984Z,1.40
2019-02-07T01:13:34.448Z,1.40
2019-02-07T01:16:02.042Z,1.40
2019-02-07T01:18:29.384Z,1.30
2019-02-07T01:20:56.773Z,1.50
2019-02-07T01:23:24.230Z,1.60
2019-02-07T01:25:51.656Z,1.50
2019-02-07T01:28:19.025Z,1.50
2019-02-07T01:30:46.387Z,1.40
2019-02-07T01:33:14.140Z,1.40
2019-02-07T01:35:41.551Z,1.30
2019-02-07T01:38:08.927Z,1.30
2019-02-07T01:40:36.425Z,1.40
2019-02-07T01:43:03.913Z,1.50
2019-02-07T01:45:31.391Z,1.50
2019-02-07T01:47:58.765Z,1.40
2019-02-07T01:50:26.652Z,1.30
2019-02-07T01:52:54.326Z,1.30
2019-02-07T01:55:22.083Z,1.40
2019-02-07T01:57:49.857Z,1.40
2019-02-07T02:00:17.428Z,1.30
2019-02-07T02:02:45.259Z,1.40
2019-02-07T02:05:13.844Z,1.50
2019-02-07T02:07:41.628Z,1.50
2019-02-07T02:10:17.041Z,1.50
2019-02-07T02:12:44.504Z,1.50
2019-02-07T02:15:24.126Z,1.40
2019-02-07T02:17:43.555Z,1.40
2019-02-07T02:20:11.128Z,1.30
2019-02-07T02:22:39.178Z,1.30
2019-02-07T02:25:07.676Z,1.40
2019-02-07T02:27:35.152Z,1.30
2019-02-07T02:30:04.706Z,1.20
2019-02-07T02:32:32.088Z,1.10
2019-02-07T02:34:59.869Z,0.90
2019-02-07T02:37:27.369Z,0.80
2019-02-07T02:39:55.116Z,0.80
2019-02-07T02:42:22.740Z,0.90
2019-02-07T02:44:50.095Z,0.90
2019-02-07T02:47:17.585Z,1.10
2019-02-07T02:49:45.383Z,1.20
2019-02-07T02:52:12.757Z,1.30
2019-02-07T02:54:59.777Z,1.20
2019-02-07T02:57:27.273Z,1.00
2019-02-07T02:59:54.970Z,0.90
2019-02-07T03:02:45.601Z,1.00
2019-02-07T03:05:31.425Z,1.10
2019-02-07T03:08:17.288Z,1.20
2019-02-07T03:11:02.988Z,1.20
2019-02-07T03:13:49.997Z,1.30
2019-02-07T03:16:46.041Z,1.30
2019-02-07T03:19:32.632Z,1.30
2019-02-07T03:22:12.221Z,1.20
2019-02-07T03:25:11.689Z,1.10
2019-02-07T03:27:50.600Z,1.10
2019-02-07T03:30:40.446Z,1.20
2019-02-07T03:33:14.864Z,1.20
2019-02-07T03:35:54.051Z,1.30
2019-02-07T03:38:48.459Z,1.30
2019-02-07T03:41:47.560Z,1.20
2019-02-07T03:44:29.148Z,1.10
2019-02-07T03:47:08.132Z,1.00
2019-02-07T03:49:51.268Z,1.00
2019-02-07T03:52:37.303Z,0.90
2019-02-07T03:55:30.265Z,1.00
2019-02-07T03:58:12.529Z,1.00
2019-02-07T04:01:05.395Z,1.00
2019-02-07T04:03:52.564Z,1.10
2019-02-07T04:06:28.575Z,1.10
2019-02-07T04:09:22.717Z,1.10
2019-02-07T04:12:12.233Z,1.20
2019-02-07T04:14:54.269Z,1.10
2019-02-07T04:17:46.801Z,0.90
2019-02-07T04:20:28.864Z,0.80
2019-02-07T04:23:13.938Z,0.70
2019-02-07T04:25:55.133Z,0.70
2019-02-07T04:28:48.184Z,0.70
2019-02-07T04:31:41.539Z,0.70
2019-02-07T04:34:37.341Z,0.90
2019-02-07T04:37:18.388Z,1.00
2019-02-07T04:40:05.411Z,1.20
2019-02-07T04:42:56.662Z,1.30
2019-02-07T04:45:32.124Z,1.50
2019-02-07T04:48:18.035Z,1.50
2019-02-07T04:51:04.096Z,1.50
2019-02-07T04:54:03.229Z,1.50
2019-02-07T04:56:48.952Z,1.40
2019-02-07T04:59:23.176Z,1.50
2019-02-07T05:02:02.956Z,1.50
2019-02-07T05:04:45.031Z,1.50
2019-02-07T05:07:27.117Z,1.50
2019-02-07T05:10:16.129Z,1.50
2019-02-07T05:13:15.044Z,1.50
2019-02-07T05:16:08.062Z,1.50
2019-02-07T05:19:00.960Z,1.30
2019-02-07T05:21:46.918Z,1.20
2019-02-07T05:24:32.277Z,1.10
2019-02-07T05:27:18.608Z,1.20
2019-02-07T05:29:59.406Z,1.20
2019-02-07T05:32:43.939Z,1.30
2019-02-07T05:35:36.517Z,1.20
2019-02-07T05:38:26.706Z,1.10
2019-02-07T05:41:14.120Z,1.20
2019-02-07T05:43:50.137Z,1.10
2019-02-07T05:46:37.890Z,1.20
2019-02-07T05:49:24.881Z,1.00
2019-02-07T05:52:04.380Z,0.90
2019-02-07T05:54:46.540Z,1.00
2019-02-07T05:57:32.311Z,1.00
2019-02-07T06:00:19.246Z,1.20
2019-02-07T06:03:10.232Z,1.20
2019-02-07T06:05:55.834Z,0.90
2019-02-07T06:08:41.588Z,0.80
2019-02-07T06:11:27.844Z,0.80
2019-02-07T06:14:13.512Z,0.90
2019-02-07T06:17:02.983Z,1.00
2019-02-07T06:19:40.525Z,1.10
2019-02-07T06:22:33.162Z,1.20
2019-02-07T06:25:18.233Z,1.30
2019-02-07T06:28:20.042Z,1.40
2019-02-07T06:31:15.948Z,1.50
2019-02-07T06:33:59.872Z,1.30
2019-02-07T06:36:58.980Z,1.30
2019-02-07T06:39:36.439Z,1.20
2019-02-07T06:42:21.877Z,1.10
2019-02-07T06:45:07.482Z,1.00
2019-02-07T06:47:49.338Z,1.00
2019-02-07T06:50:36.635Z,1.00
2019-02-07T06:53:22.814Z,1.00
2019-02-07T06:56:09.776Z,1.00
2019-02-07T06:58:55.245Z,1.20
2019-02-07T07:01:54.182Z,1.10
2019-02-07T07:04:45.826Z,1.10
2019-02-07T07:07:48.067Z,1.10
2019-02-07T07:10:33.495Z,1.10
2019-02-07T07:13:20.559Z,1.10
2019-02-07T07:16:08.380Z,1.00
2019-02-07T07:18:53.963Z,1.00
2019-02-07T07:21:41.116Z,1.00
2019-02-07T07:24:37.103Z,1.00
2019-02-07T07:27:19.638Z,1.00
2019-02-07T07:29:58.257Z,1.10
2019-02-07T07:32:43.859Z,1.10
2019-02-07T07:35:32.432Z,1.00
2019-02-07T07:38:16.515Z,1.00
2019-02-07T07:41:06.003Z,1.00
2019-02-07T07:43:49.787Z,1.00
2019-02-07T07:46:36.755Z,1.10
2019-02-07T07:49:23.701Z,1.10
2019-02-07T07:52:09.331Z,1.10
2019-02-07T07:54:45.364Z,1.10
2019-02-07T07:57:25.047Z,1.10
2019-02-07T08:00:10.798Z,1.10
2019-02-07T08:02:57.779Z,1.20
2019-02-07T08:05:50.348Z,1.20
2019-02-07T08:08:43.230Z,1.20
2019-02-07T08:11:19.600Z,1.20
2019-02-07T08:14:09.384Z,1.30
2019-02-07T08:17:01.900Z,1.30
2019-02-07T08:19:51.672Z,1.30
2019-02-07T08:22:27.219Z,1.30
2019-02-07T08:25:12.999Z,1.30
2019-02-07T08:27:58.716Z,1.40
2019-02-07T08:30:44.445Z,1.30
2019-02-07T08:33:43.447Z,1.30
2019-02-07T08:36:42.652Z,1.30
2019-02-07T08:39:34.055Z,1.40
2019-02-07T08:42:29.776Z,1.40
2019-02-07T08:45:10.344Z,1.40
2019-02-07T08:47:58.551Z,1.40
2019-02-07T08:50:56.572Z,1.40
2019-02-07T08:53:42.156Z,1.50
2019-02-07T08:56:26.317Z,1.50
2019-02-07T08:59:16.074Z,1.50
2019-02-07T09:02:01.680Z,1.60
2019-02-07T09:04:40.458Z,1.60
2019-02-07T09:07:21.158Z,1.60
2019-02-07T09:10:05.276Z,1.60
2019-02-07T09:13:10.245Z,1.60
2019-02-07T09:15:55.819Z,1.50
2019-02-07T09:18:39.219Z,1.60
2019-02-07T09:21:38.222Z,1.60
2019-02-07T09:24:37.280Z,1.60
2019-02-07T09:27:23.108Z,1.60
2019-02-07T09:30:08.781Z,1.60
2019-02-07T09:33:04.704Z,1.60
2019-02-07T09:35:49.919Z,1.60
2019-02-07T09:38:35.717Z,1.60
2019-02-07T09:41:29.454Z,1.60
2019-02-07T09:44:15.069Z,1.60
2019-02-07T09:47:01.934Z,1.70
2019-02-07T09:49:40.959Z,1.70
2019-02-07T09:52:26.027Z,1.70
2019-02-07T09:55:13.184Z,1.70
2019-02-07T09:57:47.427Z,1.70
2019-02-07T10:00:32.731Z,1.70
2019-02-07T10:03:16.111Z,1.70
2019-02-07T10:06:03.080Z,1.70
2019-02-07T10:08:48.222Z,1.80
2019-02-07T10:11:25.680Z,1.80
2019-02-07T10:14:12.638Z,1.80
2019-02-07T10:17:11.621Z,1.80
2019-02-07T10:20:13.515Z,2.00
2019-02-07T10:23:03.217Z,2.00
2019-02-07T10:25:59.044Z,1.90
2019-02-07T10:28:46.028Z,1.90
2019-02-07T10:31:21.408Z,1.80
2019-02-07T10:34:06.739Z,1.80
2019-02-07T10:36:43.723Z,1.90
2019-02-07T10:39:31.399Z,1.90
2019-02-07T10:42:17.449Z,1.90
2019-02-07T10:45:04.530Z,2.00
2019-02-07T10:47:54.384Z,2.00
2019-02-07T10:50:41.315Z,1.90
2019-02-07T10:53:33.888Z,1.90
2019-02-07T10:56:19.571Z,1.90
2019-02-07T10:59:06.913Z,2.00
2019-02-07T11:01:45.086Z,2.00
2019-02-07T11:04:30.532Z,2.00
2019-02-07T11:07:17.507Z,2.00
2019-02-07T11:10:07.880Z,2.00
2019-02-07T11:12:59.760Z,2.00
2019-02-07T11:16:00.828Z,2.00
2019-02-07T11:18:55.556Z,2.10
2019-02-07T11:21:32.909Z,2.00
2019-02-07T11:24:31.799Z,2.10
2019-02-07T11:27:11.347Z,2.00
2019-02-07T11:30:05.923Z,2.00
2019-02-07T11:32:43.411Z,2.10
2019-02-07T11:35:40.852Z,2.10
2019-02-07T11:38:34.308Z,2.00
2019-02-07T11:41:22.515Z,2.00
2019-02-07T11:44:15.566Z,2.00
2019-02-07T11:46:50.745Z,2.00
2019-02-07T11:49:31.260Z,2.00
2019-02-07T11:52:30.255Z,2.00
2019-02-07T11:55:14.734Z,2.00
2019-02-07T11:57:54.131Z,2.10
2019-02-07T12:00:43.651Z,2.00
2019-02-07T12:03:30.580Z,2.00
2019-02-07T12:06:29.397Z,2.00
2019-02-07T12:09:22.152Z,2.00
2019-02-07T12:12:07.210Z,1.90
2019-02-07T12:15:05.988Z,2.10
2019-02-07T12:17:50.826Z,2.00
2019-02-07T12:20:34.528Z,2.00
2019-02-07T12:23:21.495Z,1.90
2019-02-07T12:26:01.824Z,1.90
2019-02-07T12:28:47.012Z,1.90
2019-02-07T12:31:32.698Z,2.00
2019-02-07T12:34:31.752Z,2.00
2019-02-07T12:37:16.922Z,2.00
2019-02-07T12:40:03.784Z,2.00
2019-02-07T12:42:40.073Z,2.00
2019-02-07T12:45:17.887Z,2.00
2019-02-07T12:47:55.551Z,2.00
2019-02-07T12:50:45.393Z,2.00
2019-02-07T12:53:35.192Z,1.90
2019-02-07T12:56:20.142Z,1.90
2019-02-07T12:59:05.992Z,2.00
2019-02-07T13:01:51.381Z,2.00
2019-02-07T13:04:41.260Z,1.90
2019-02-07T13:07:34.580Z,1.90
2019-02-07T13:10:22.252Z,1.90
2019-02-07T13:13:07.704Z,1.90
2019-02-07T13:15:56.519Z,2.00
2019-02-07T13:18:38.263Z,1.90
2019-02-07T13:21:13.756Z,1.90
2019-02-07T13:24:00.723Z,1.80
2019-02-07T13:26:41.332Z,1.80
2019-02-07T13:29:40.420Z,1.80
2019-02-07T13:32:33.459Z,1.80
2019-02-07T13:35:19.345Z,1.80
2019-02-07T13:38:18.428Z,1.80
2019-02-07T13:41:17.527Z,1.80
2019-02-07T13:44:12.373Z,1.80
2019-02-07T13:46:48.723Z,1.80
2019-02-07T13:49:54.012Z,1.80
2019-02-07T13:52:39.354Z,1.80
2019-02-07T13:55:30.271Z,1.80
2019-02-07T13:58:26.187Z,1.80
2019-02-07T14:01:15.888Z,1.70
2019-02-07T14:04:04.575Z,1.80
2019-02-07T14:06:49.779Z,1.80
2019-02-07T14:09:35.520Z,1.80
2019-02-07T14:12:25.550Z,1.80
2019-02-07T14:15:01.602Z,1.70
2019-02-07T14:18:03.956Z,1.70
2019-02-07T14:20:49.280Z,1.70
2019-02-07T14:23:45.304Z,1.90
2019-02-07T14:26:29.863Z,1.80
2019-02-07T14:29:13.513Z,1.80
2019-02-07T14:31:59.100Z,1.80
2019-02-07T14:34:48.871Z,1.90
2019-02-07T14:37:34.464Z,1.80
2019-02-07T14:40:30.506Z,1.80
2019-02-07T14:43:03.159Z,1.70
2019-02-07T14:45:51.374Z,1.80
2019-02-07T14:48:25.543Z,1.80
2019-02-07T14:50:53.723Z,1.80
2019-02-07T14:53:21.068Z,1.80
2019-02-07T14:55:48.413Z,1.80
2019-02-07T14:58:15.736Z,1.80
2019-02-07T15:00:43.073Z,1.70
2019-02-07T15:03:10.380Z,1.70
2019-02-07T15:05:37.745Z,1.70
2019-02-07T15:08:05.047Z,1.70
2019-02-07T15:10:32.492Z,1.60
2019-02-07T15:13:01.331Z,1.60
2019-02-07T15:15:28.768Z,1.60
2019-02-07T15:17:56.071Z,1.60
2019-02-07T15:20:26.311Z,1.60
2019-02-07T15:22:52.643Z,1.50
2019-02-07T15:25:20.375Z,1.40
2019-02-07T15:27:48.232Z,1.50
2019-02-07T15:30:16.314Z,1.60
2019-02-07T15:32:43.828Z,1.60
2019-02-07T15:35:15.797Z,1.50
2019-02-07T15:37:43.327Z,1.40
2019-02-07T15:40:14.218Z,1.50
2019-02-07T15:42:41.810Z,1.50
2019-02-07T15:45:10.161Z,1.50
2019-02-07T15:47:37.836Z,1.50
2019-02-07T15:50:11.855Z,1.40
2019-02-07T15:52:39.372Z,1.50
2019-02-07T15:55:07.022Z,1.50
2019-02-07T15:57:34.865Z,1.40
2019-02-07T16:00:10.877Z,1.40
2019-02-07T16:02:49.818Z,1.30
2019-02-07T16:05:17.646Z,1.40
2019-02-07T16:07:45.326Z,1.40
2019-02-07T16:10:14.540Z,1.40
2019-02-07T16:12:42.081Z,1.40
2019-02-07T16:15:10.425Z,1.50
2019-02-07T16:17:38.279Z,1.50
2019-02-07T16:20:10.301Z,1.50
2019-02-07T16:22:38.101Z,1.50
2019-02-07T16:25:08.407Z,1.40
2019-02-07T16:27:36.084Z,1.40
2019-02-07T16:30:09.814Z,1.40
2019-02-07T16:32:37.631Z,1.40
2019-02-07T16:35:06.227Z,1.30
2019-02-07T16:37:33.851Z,1.40
2019-02-07T16:40:01.339Z,1.40
2019-02-07T16:42:29.221Z,1.50
2019-02-07T16:44:56.820Z,1.50
2019-02-07T16:47:24.634Z,1.40
2019-02-07T16:49:52.160Z,1.40
2019-02-07T16:52:19.684Z,1.50
2019-02-07T16:54:47.126Z,1.40
2019-02-07T16:57:15.032Z,1.40
2019-02-07T17:00:02.450Z,1.40
2019-02-07T17:02:41.869Z,1.50
2019-02-07T17:05:12.618Z,1.50
2019-02-07T17:07:58.896Z,1.50
2019-02-07T17:10:31.802Z,1.50
2019-02-07T17:13:12.783Z,1.40
2019-02-07T17:16:03.326Z,1.40
2019-02-07T17:18:51.600Z,1.40
2019-02-07T17:21:49.862Z,1.50
2019-02-07T17:31:50.751Z,1.60
2019-02-07T17:34:57.748Z,1.70
2019-02-07T17:38:09.332Z,1.60
2019-02-07T17:41:01.541Z,1.70
2019-02-07T17:43:29.494Z,1.60
2019-02-07T17:45:57.113Z,1.60
2019-02-07T17:48:24.792Z,1.70
2019-02-07T17:50:52.474Z,1.70
2019-02-07T17:53:20.460Z,1.60
2019-02-07T17:55:48.398Z,1.50
2019-02-07T17:58:15.916Z,1.60
2019-02-07T18:00:52.358Z,1.50
2019-02-07T18:03:19.743Z,1.50
2019-02-07T18:05:47.804Z,1.60
2019-02-07T18:08:16.251Z,1.60
2019-02-07T18:10:43.879Z,1.60
2019-02-07T18:13:12.048Z,1.70
2019-02-07T18:15:39.876Z,1.70
2019-02-07T18:18:07.750Z,1.70
2019-02-07T18:20:35.526Z,1.70
2019-02-07T18:23:03.822Z,1.60
2019-02-07T18:25:31.482Z,1.50
2019-02-07T18:27:59.644Z,1.50
2019-02-07T18:30:27.239Z,1.60
2019-02-07T18:32:54.980Z,1.70
2019-02-07T18:35:23.080Z,1.60
2019-02-07T18:37:56.054Z,1.70
2019-02-07T18:40:24.936Z,1.70
2019-02-07T18:42:53.061Z,1.90
2019-02-07T18:45:22.134Z,1.80
2019-02-07T18:47:49.979Z,1.60
2019-02-07T18:50:29.785Z,1.50
2019-02-07T18:52:57.389Z,1.50
2019-02-07T18:55:25.412Z,1.40
2019-02-07T18:57:53.199Z,1.40
2019-02-07T19:00:23.892Z,1.40
2019-02-07T19:02:51.969Z,1.50
2019-02-07T19:05:20.734Z,1.50
2019-02-07T19:07:48.356Z,1.50
2019-02-07T19:10:17.775Z,1.40
2019-02-07T19:12:53.407Z,1.40
2019-02-07T19:15:47.079Z,1.40
2019-02-07T19:18:14.770Z,1.50
2019-02-07T19:20:42.479Z,1.40
2019-02-07T19:23:10.258Z,1.40
2019-02-07T19:25:38.188Z,1.40
2019-02-07T19:28:08.194Z,1.40
2019-02-07T19:30:36.165Z,1.50
2019-02-07T19:33:04.567Z,1.60
2019-02-07T19:35:32.151Z,1.60
2019-02-07T19:37:59.848Z,1.50
2019-02-07T19:40:31.133Z,1.60
2019-02-07T19:42:58.995Z,1.60
2019-02-07T19:45:26.576Z,1.50
2019-02-07T19:47:54.161Z,1.40
2019-02-07T19:50:23.297Z,1.50
2019-02-07T19:52:50.875Z,1.40
2019-02-07T19:55:20.753Z,1.40
2019-02-07T19:57:48.303Z,1.40
2019-02-07T20:00:21.196Z,1.40
2019-02-07T20:02:48.669Z,1.50
2019-02-07T20:05:16.252Z,1.50
2019-02-07T20:07:43.739Z,1.50
2019-02-07T20:10:13.606Z,1.50
2019-02-07T20:12:42.549Z,1.40
2019-02-07T20:15:14.943Z,1.40
2019-02-07T20:17:42.354Z,1.40
2019-02-07T20:20:10.343Z,1.40
2019-02-07T20:22:37.810Z,1.40
2019-02-07T20:25:06.202Z,1.30
2019-02-07T20:27:33.704Z,1.20
2019-02-07T20:30:01.121Z,1.20
2019-02-07T20:32:28.648Z,1.20
2019-02-07T20:34:58.976Z,1.20
2019-02-07T20:37:27.311Z,1.10
2019-02-07T20:39:54.902Z,1.20
2019-02-07T20:42:22.382Z,1.20
2019-02-07T20:44:49.891Z,1.20
2019-02-07T20:47:17.416Z,1.30
2019-02-07T20:49:44.941Z,1.40
2019-02-07T20:52:12.579Z,1.30
2019-02-07T20:54:40.257Z,1.40
2019-02-07T20:57:08.382Z,1.50
2019-02-07T20:59:35.872Z,1.50
2019-02-07T21:02:03.708Z,1.50
2019-02-07T21:04:31.054Z,1.50
2019-02-07T21:06:58.560Z,1.50
2019-02-07T21:09:26.125Z,1.60
2019-02-07T21:11:53.962Z,1.60
2019-02-07T21:14:21.356Z,1.60
2019-02-07T21:16:49.013Z,1.60
2019-02-07T21:19:16.570Z,1.60
2019-02-07T21:21:43.923Z,1.60
2019-02-07T21:24:11.273Z,1.70
2019-02-07T21:26:39.033Z,1.80
2019-02-07T21:29:06.534Z,1.70
2019-02-07T21:31:34.333Z,1.70
2019-02-07T21:34:01.676Z,1.70
2019-02-07T21:36:29.176Z,1.70
2019-02-07T21:38:56.701Z,1.70
2019-02-07T21:41:24.383Z,1.80
2019-02-07T21:43:51.854Z,1.80
2019-02-07T21:46:19.355Z,1.80
2019-02-07T21:48:46.726Z,1.90
2019-02-07T21:51:14.080Z,1.90
2019-02-07T21:53:41.526Z,2.00
2019-02-07T21:56:08.934Z,2.00
2019-02-07T21:58:36.436Z,2.00
2019-02-07T22:01:04.327Z,2.00
2019-02-07T22:03:31.819Z,2.10
2019-02-07T22:05:59.308Z,2.00
2019-02-07T22:08:26.718Z,2.00
2019-02-07T22:10:54.441Z,2.00
2019-02-07T22:13:21.806Z,2.00
2019-02-07T22:15:49.158Z,2.00
2019-02-07T22:18:16.538Z,2.00
2019-02-07T22:20:44.946Z,2.10
2019-02-07T22:23:12.490Z,2.10
2019-02-07T22:25:40.084Z,2.10
2019-02-07T22:28:08.492Z,2.20
2019-02-07T22:30:36.261Z,2.10
2019-02-07T22:33:04.320Z,2.00
2019-02-07T22:35:31.801Z,2.10
2019-02-07T22:37:59.836Z,2.00
2019-02-07T22:40:27.230Z,2.10
2019-02-07T22:42:54.732Z,2.10
2019-02-07T22:45:23.682Z,2.20
2019-02-07T22:47:51.167Z,2.10
2019-02-07T22:50:23.197Z,2.20
2019-02-07T22:52:56.821Z,2.20
2019-02-07T22:55:20.527Z,2.20
2019-02-07T22:57:48.096Z,2.20
2019-02-07T23:01:06.156Z,2.20
2019-02-07T23:03:33.991Z,2.30
2019-02-07T23:06:01.475Z,2.40
2019-02-07T23:08:28.933Z,2.40
2019-02-07T23:10:56.325Z,2.40
2019-02-07T23:13:23.822Z,2.40
2019-02-07T23:15:51.631Z,2.30
2019-02-07T23:18:19.173Z,2.30
2019-02-07T23:20:46.895Z,2.30
2019-02-07T23:23:14.631Z,2.40
2019-02-07T23:25:42.911Z,2.30
2019-02-07T23:28:10.754Z,2.30
2019-02-07T23:30:38.551Z,2.30
2019-02-07T23:33:06.081Z,2.30
2019-02-07T23:35:33.560Z,2.30
2019-02-07T23:38:00.919Z,2.50
2019-02-07T23:40:28.362Z,2.40
2019-02-07T23:42:56.330Z,2.40
2019-02-07T23:45:23.977Z,2.30
2019-02-07T23:47:52.184Z,2.30
2019-02-07T23:50:19.964Z,2.40
2019-02-07T23:52:47.662Z,2.30
2019-02-07T23:55:15.914Z,2.40
2019-02-07T23:57:43.877Z,2.40
